Time;durP1;ratioP1;P1;durP2;ratioP2;P2;SDS_P1;SDS_P2;PMS_P1;PMS_P2;Temp;Humidity;BMP_temperature;BMP_pressure;BME280_temperature;BME280_humidity;BME280_pressure;Samples;Min_cycle;Max_cycle;Signal;HPM_P1;HPM_P2
2022/04/09 00:01:16;;;;;;;13.70;2.30;;;7.00;99.90;;;;;;5117238;28;20399;-59
2022/04/09 00:03:42;;;;;;;14.25;2.25;;;7.00;99.90;;;;;;5099632;28;20046;-57
2022/04/09 00:06:07;;;;;;;13.07;2.92;;;6.90;99.90;;;;;;5116403;28;20024;-58
2022/04/09 00:08:33;;;;;;;17.67;2.42;;;6.90;99.90;;;;;;5116781;28;20031;-58
2022/04/09 00:10:59;;;;;;;11.80;2.47;;;6.90;99.90;;;;;;5100075;28;20119;-60
2022/04/09 00:13:25;;;;;;;9.82;2.47;;;6.80;99.90;;;;;;5116430;28;20436;-57
2022/04/09 00:15:51;;;;;;;10.05;2.55;;;6.70;99.90;;;;;;5117202;28;20070;-60
2022/04/09 00:18:16;;;;;;;12.65;2.60;;;7.00;99.90;;;;;;5117113;28;20052;-58
2022/04/09 00:20:43;;;;;;;20.58;2.90;;;7.00;99.90;;;;;;5117140;28;20031;-60
2022/04/09 00:23:10;;;;;;;16.58;3.08;;;7.00;99.90;;;;;;5117410;28;20031;-59
2022/04/09 00:25:36;;;;;;;17.23;2.60;;;6.90;99.90;;;;;;5120066;28;20106;-58
2022/04/09 00:28:03;;;;;;;15.20;2.33;;;7.00;99.90;;;;;;5120286;28;20421;-58
2022/04/09 00:30:29;;;;;;;12.10;2.90;;;7.00;99.90;;;;;;5120465;28;20031;-59
2022/04/09 00:32:55;;;;;;;19.30;2.72;;;7.10;99.90;;;;;;5120973;28;20035;-59
2022/04/09 00:35:20;;;;;;;13.32;2.90;;;7.00;99.90;;;;;;5120255;28;20028;-58
2022/04/09 00:37:47;;;;;;;16.67;2.75;;;7.10;99.90;;;;;;5119862;28;20047;-59
2022/04/09 00:40:18;;;;;;;12.20;2.50;;;6.90;99.90;;;;;;5120010;28;20298;-59
2022/04/09 00:42:47;;;;;;;12.18;2.20;;;6.90;99.90;;;;;;5119766;28;20055;-59
2022/04/09 00:45:13;;;;;;;17.75;2.90;;;6.70;99.90;;;;;;5120702;28;20028;-58
2022/04/09 00:47:40;;;;;;;13.27;2.78;;;6.80;99.90;;;;;;5120638;28;20031;-59
2022/04/09 00:50:07;;;;;;;14.25;2.60;;;6.80;99.90;;;;;;5120019;28;20059;-56
2022/04/09 00:52:35;;;;;;;13.07;2.90;;;6.70;99.90;;;;;;5120406;28;20035;-59
2022/04/09 00:55:04;;;;;;;13.85;2.30;;;6.60;99.90;;;;;;5119791;28;20036;-59
2022/04/09 00:57:34;;;;;;;16.17;2.90;;;6.40;99.90;;;;;;5119708;28;20156;-59
2022/04/09 01:00:09;;;;;;;11.95;2.58;;;6.40;99.90;;;;;;5120371;28;20031;-60
2022/04/09 01:02:39;;;;;;;20.65;3.10;;;6.30;99.90;;;;;;5120305;28;20035;-59
2022/04/09 01:05:06;;;;;;;14.50;3.03;;;6.30;99.90;;;;;;5120445;28;20028;-60
2022/04/09 01:07:33;;;;;;;21.10;3.55;;;6.30;99.90;;;;;;5120380;28;20026;-59
2022/04/09 01:09:59;;;;;;;18.20;2.47;;;6.30;99.90;;;;;;5120211;28;20039;-59
2022/04/09 01:12:25;;;;;;;17.67;2.92;;;6.20;99.90;;;;;;5120040;28;20342;-56
2022/04/09 01:14:51;;;;;;;18.88;3.05;;;6.40;99.90;;;;;;5119289;28;20104;-59
2022/04/09 01:17:18;;;;;;;19.13;2.97;;;6.50;99.90;;;;;;5119285;28;20112;-58
2022/04/09 01:19:43;;;;;;;18.75;3.13;;;6.30;99.90;;;;;;5119996;28;20115;-58
2022/04/09 01:22:09;;;;;;;18.88;2.58;;;6.30;99.90;;;;;;5102317;28;20373;-59
2022/04/09 01:24:35;;;;;;;16.85;2.90;;;6.30;99.90;;;;;;5120031;28;20103;-60
2022/04/09 01:27:03;;;;;;;15.77;2.83;;;6.30;99.90;;;;;;5102470;28;20122;-59
2022/04/09 01:29:33;;;;;;;16.38;3.45;;;6.20;99.90;;;;;;5119889;28;20063;-60
2022/04/09 01:31:59;;;;;;;12.98;2.50;;;6.00;99.90;;;;;;5102106;28;20059;-60
2022/04/09 01:34:25;;;;;;;13.48;2.28;;;6.00;99.90;;;;;;5101702;28;20039;-60
2022/04/09 01:36:51;;;;;;;20.15;2.67;;;5.90;99.90;;;;;;5102350;28;20047;-60
2022/04/09 01:39:18;;;;;;;13.32;2.80;;;5.90;99.90;;;;;;5118950;28;20074;-61
2022/04/09 01:41:47;;;;;;;15.15;2.63;;;5.80;99.90;;;;;;5118433;28;20051;-60
2022/04/09 01:44:13;;;;;;;11.43;2.33;;;5.80;99.90;;;;;;5119451;28;20023;-59
2022/04/09 01:46:44;;;;;;;13.18;3.05;;;5.80;99.90;;;;;;5118733;28;20402;-58
2022/04/09 01:49:11;;;;;;;16.20;3.35;;;5.70;99.90;;;;;;5118796;28;20020;-61
2022/04/09 01:51:40;;;;;;;22.10;3.47;;;5.70;99.90;;;;;;5119701;28;20036;-58
2022/04/09 01:54:10;;;;;;;11.18;2.55;;;5.80;99.90;;;;;;5118511;28;20032;-59
2022/04/09 01:56:36;;;;;;;16.35;3.15;;;5.80;99.90;;;;;;5119532;28;20314;-60
2022/04/09 01:59:02;;;;;;;16.73;2.83;;;5.70;99.90;;;;;;5118628;28;20099;-60
2022/04/09 02:01:28;;;;;;;16.20;2.95;;;5.70;99.90;;;;;;5101239;28;20453;-60
2022/04/09 02:03:54;;;;;;;13.50;2.67;;;5.60;99.90;;;;;;5118243;28;20032;-60
2022/04/09 02:06:20;;;;;;;14.40;2.80;;;5.50;99.90;;;;;;5118433;28;20038;-60
2022/04/09 02:08:45;;;;;;;15.38;3.28;;;5.40;99.90;;;;;;5119007;28;20032;-61
2022/04/09 02:11:11;;;;;;;13.27;2.63;;;5.40;99.90;;;;;;5084407;28;20081;-60
2022/04/09 02:13:38;;;;;;;16.40;2.97;;;5.30;99.90;;;;;;5101433;28;20084;-60
2022/04/09 02:16:04;;;;;;;16.35;2.88;;;5.20;99.90;;;;;;5118208;28;20309;-61
2022/04/09 02:18:33;;;;;;;13.63;3.13;;;5.20;99.90;;;;;;5102139;28;20028;-61
2022/04/09 02:20:59;;;;;;;14.18;2.92;;;5.20;99.90;;;;;;5118033;28;20085;-61
2022/04/09 02:23:25;;;;;;;16.80;2.60;;;5.10;99.90;;;;;;5100955;28;20458;-60
2022/04/09 02:25:53;;;;;;;14.85;2.65;;;5.20;99.90;;;;;;5118570;28;20031;-61
2022/04/09 02:28:19;;;;;;;12.07;2.50;;;5.20;99.90;;;;;;5100988;28;20027;-63
2022/04/09 02:30:49;;;;;;;17.48;3.08;;;5.20;99.90;;;;;;5101075;28;20327;-60
2022/04/09 02:33:24;;;;;;;13.18;2.78;;;5.30;99.90;;;;;;5102718;28;20135;-58
2022/04/09 02:35:51;;;;;;;16.15;2.65;;;5.30;99.90;;;;;;5117753;28;20031;-60
2022/04/09 02:38:17;;;;;;;12.75;2.75;;;5.50;99.90;;;;;;5100832;28;20065;-60
2022/04/09 02:40:43;;;;;;;14.50;2.65;;;5.40;99.90;;;;;;5117436;28;20032;-61
2022/04/09 02:43:10;;;;;;;9.48;2.50;;;5.40;99.90;;;;;;5117643;28;20043;-59
2022/04/09 02:45:39;;;;;;;16.10;2.72;;;5.40;99.90;;;;;;5100568;28;20307;-60
2022/04/09 02:48:07;;;;;;;11.82;1.77;;;5.40;99.90;;;;;;5099707;28;20130;-59
2022/04/09 02:50:34;;;;;;;17.23;2.33;;;5.30;99.90;;;;;;5100734;28;20055;-62
2022/04/09 02:53:01;;;;;;;19.88;2.72;;;5.30;99.90;;;;;;5100459;28;20024;-60
2022/04/09 02:55:27;;;;;;;12.18;3.03;;;5.30;99.90;;;;;;5100440;28;20326;-60
2022/04/09 02:57:53;;;;;;;14.50;2.53;;;5.30;99.90;;;;;;5100307;28;20036;-58
2022/04/09 03:00:23;;;;;;;21.02;2.67;;;5.30;99.90;;;;;;5100959;28;20032;-59
2022/04/09 03:02:50;;;;;;;16.38;2.95;;;5.30;99.90;;;;;;5117110;28;20592;-60
2022/04/09 03:05:27;;;;;;;10.77;2.10;;;5.40;99.90;;;;;;5101875;28;20032;-60
2022/04/09 03:07:57;;;;;;;17.75;2.92;;;5.40;99.90;;;;;;5117264;28;20046;-59
2022/04/09 03:10:23;;;;;;;12.20;2.50;;;5.50;99.90;;;;;;5118556;28;20031;-59
2022/04/09 03:12:51;;;;;;;11.10;2.55;;;5.40;99.90;;;;;;5100302;28;20036;-60
2022/04/09 03:15:17;;;;;;;14.25;3.05;;;5.30;99.90;;;;;;5099720;28;20051;-59
2022/04/09 03:17:45;;;;;;;16.38;2.53;;;5.20;99.90;;;;;;5117004;28;20420;-60
2022/04/09 03:20:12;;;;;;;11.98;2.67;;;5.10;99.90;;;;;;5100261;28;20032;-60
2022/04/09 03:22:46;;;;;;;18.58;2.60;;;5.00;99.90;;;;;;5116699;28;20096;-60
2022/04/09 03:25:15;;;;;;;12.70;2.05;;;5.10;99.90;;;;;;5116774;28;20024;-60
2022/04/09 03:27:42;;;;;;;16.13;2.72;;;5.10;99.90;;;;;;5116948;28;20019;-59
2022/04/09 03:30:10;;;;;;;14.07;3.17;;;5.00;99.90;;;;;;5100016;28;20071;-59
2022/04/09 03:32:37;;;;;;;17.85;2.95;;;5.10;99.90;;;;;;5116788;28;20111;-60
2022/04/09 03:35:08;;;;;;;18.17;3.42;;;5.10;99.90;;;;;;5116808;28;20102;-60
2022/04/09 03:37:35;;;;;;;19.58;2.88;;;5.00;99.90;;;;;;5116675;28;20043;-60
2022/04/09 03:40:07;;;;;;;15.50;3.20;;;4.90;99.90;;;;;;5099881;28;20031;-59
2022/04/09 03:42:33;;;;;;;11.23;2.70;;;4.90;99.90;;;;;;5116412;28;20054;-59
2022/04/09 03:44:59;;;;;;;15.63;3.08;;;4.90;99.90;;;;;;5116663;28;20047;-59
2022/04/09 03:47:25;;;;;;;15.90;3.08;;;4.90;99.90;;;;;;5116542;28;20027;-59
2022/04/09 03:49:52;;;;;;;18.77;3.30;;;4.90;99.90;;;;;;5116775;28;20024;-60
2022/04/09 03:52:18;;;;;;;14.35;3.90;;;4.90;99.90;;;;;;5099668;28;20275;-59
2022/04/09 03:54:44;;;;;;;16.52;3.35;;;4.80;99.90;;;;;;5099630;28;20031;-59
2022/04/09 03:57:11;;;;;;;15.35;3.25;;;4.70;99.90;;;;;;5099643;28;20042;-61
2022/04/09 03:59:44;;;;;;;13.82;3.45;;;4.70;99.90;;;;;;5104781;28;20081;-61
2022/04/09 04:02:11;;;;;;;17.20;4.15;;;4.70;99.90;;;;;;5120628;28;20042;-60
2022/04/09 04:04:37;;;;;;;19.70;4.30;;;4.70;99.90;;;;;;5103688;28;20338;-59
2022/04/09 04:07:04;;;;;;;14.30;3.92;;;4.70;99.90;;;;;;5103841;28;20028;-59
2022/04/09 04:09:30;;;;;;;16.63;4.28;;;4.70;99.90;;;;;;5120664;28;20024;-59
2022/04/09 04:11:58;;;;;;;14.63;4.55;;;4.70;99.90;;;;;;5120587;28;20027;-60
2022/04/09 04:14:28;;;;;;;14.45;4.28;;;4.70;99.90;;;;;;5120558;28;20284;-59
2022/04/09 04:16:55;;;;;;;12.85;4.00;;;4.70;99.90;;;;;;5103900;28;20024;-58
2022/04/09 04:19:21;;;;;;;14.43;4.20;;;4.60;99.90;;;;;;5103478;28;20032;-60
2022/04/09 04:21:49;;;;;;;14.27;3.83;;;4.60;99.90;;;;;;5103581;28;20092;-60
2022/04/09 04:24:15;;;;;;;16.67;4.28;;;4.60;99.90;;;;;;5103272;28;20395;-59
2022/04/09 04:26:42;;;;;;;18.95;4.53;;;4.60;99.90;;;;;;5120258;28;20035;-59
2022/04/09 04:29:18;;;;;;;13.85;4.22;;;4.50;99.90;;;;;;5120547;28;20032;-59
2022/04/09 04:31:45;;;;;;;15.02;3.83;;;4.60;99.90;;;;;;5120149;28;20438;-59
2022/04/09 04:34:14;;;;;;;13.45;4.30;;;4.60;99.90;;;;;;5120157;28;20277;-60
2022/04/09 04:36:43;;;;;;;15.88;3.65;;;4.50;99.90;;;;;;5103507;28;20453;-59
2022/04/09 04:39:09;;;;;;;14.95;4.20;;;4.50;99.90;;;;;;5120098;28;20319;-59
2022/04/09 04:41:39;;;;;;;16.13;3.55;;;4.40;99.90;;;;;;5119809;28;20048;-60
2022/04/09 04:44:06;;;;;;;18.17;3.53;;;4.40;99.90;;;;;;5102675;28;20403;-59
2022/04/09 04:46:41;;;;;;;14.77;3.65;;;4.40;99.90;;;;;;5103902;28;20034;-59
2022/04/09 04:49:12;;;;;;;17.38;3.97;;;4.40;99.90;;;;;;5103440;28;20447;-60
2022/04/09 04:51:38;;;;;;;14.50;4.30;;;4.40;99.90;;;;;;5102893;28;20027;-59
2022/04/09 04:54:05;;;;;;;13.13;3.42;;;4.50;99.90;;;;;;5102804;28;20421;-60
2022/04/09 04:56:32;;;;;;;14.65;3.55;;;4.50;99.90;;;;;;5102848;28;20040;-59
2022/04/09 04:58:59;;;;;;;10.65;3.83;;;4.50;99.90;;;;;;5119579;28;20035;-60
2022/04/09 05:01:25;;;;;;;18.02;4.15;;;4.50;99.90;;;;;;5119573;28;20035;-57
2022/04/09 05:03:58;;;;;;;;;;;4.60;99.90;;;;;;5119910;28;20032;-58
2022/04/09 05:06:30;;;;;;;14.67;3.43;;;4.70;99.90;;;;;;5103430;28;19912;-60
2022/04/09 05:08:56;;;;;;;17.05;3.78;;;4.70;99.90;;;;;;5102677;28;20035;-62
2022/04/09 05:11:33;;;;;;;14.73;3.67;;;4.60;99.90;;;;;;5103456;28;20381;-60
2022/04/09 05:14:03;;;;;;;17.67;4.38;;;4.60;99.90;;;;;;5119088;28;20039;-60
2022/04/09 05:16:30;;;;;;;17.10;4.20;;;4.60;99.90;;;;;;5102161;28;20032;-60
2022/04/09 05:19:02;;;;;;;24.02;4.50;;;4.50;99.90;;;;;;5103240;28;20114;-60
2022/04/09 05:21:29;;;;;;;13.50;3.88;;;4.70;99.90;;;;;;5119141;28;20031;-60
2022/04/09 05:23:55;;;;;;;19.60;5.20;;;4.80;99.90;;;;;;5119168;28;20024;-59
2022/04/09 05:26:21;;;;;;;17.92;4.80;;;4.80;99.90;;;;;;5102130;28;20038;-61
2022/04/09 05:28:53;;;;;;;17.15;4.13;;;4.90;99.90;;;;;;5102305;28;20043;-59
2022/04/09 05:31:27;;;;;;;22.83;4.95;;;4.90;99.90;;;;;;5118915;28;20047;-60
2022/04/09 05:33:54;;;;;;;13.30;4.35;;;5.00;99.90;;;;;;5086060;28;20035;-60
2022/04/09 05:36:22;;;;;;;18.75;5.00;;;5.00;99.90;;;;;;5118797;28;20016;-58
2022/04/09 05:38:51;;;;;;;20.15;4.75;;;5.00;99.90;;;;;;5118729;28;20024;-59
2022/04/09 05:41:17;;;;;;;15.25;4.28;;;5.00;99.90;;;;;;5101618;28;20040;-60
2022/04/09 05:43:43;;;;;;;16.83;4.65;;;5.00;99.90;;;;;;5119406;28;20424;-60
2022/04/09 05:46:08;;;;;;;17.60;4.63;;;4.90;99.90;;;;;;5118599;28;20072;-60
2022/04/09 05:48:36;;;;;;;15.25;4.40;;;4.90;99.90;;;;;;5101970;28;20036;-61
2022/04/09 05:51:02;;;;;;;22.80;6.00;;;5.00;99.90;;;;;;5118704;28;20077;-60
2022/04/09 05:53:32;;;;;;;20.10;4.30;;;5.00;99.90;;;;;;5118684;28;20049;-59
2022/04/09 05:56:00;;;;;;;10.27;4.20;;;5.10;99.90;;;;;;5118379;28;20067;-60
2022/04/09 05:58:32;;;;;;;18.40;4.30;;;5.20;99.90;;;;;;5118482;28;20028;-59
2022/04/09 06:01:01;;;;;;;21.95;4.53;;;5.20;99.90;;;;;;5101711;28;20493;-61
2022/04/09 06:03:33;;;;;;;18.00;5.03;;;5.20;99.90;;;;;;5118250;28;20441;-62
2022/04/09 06:05:59;;;;;;;15.38;4.68;;;5.00;99.90;;;;;;5101349;28;20024;-61
2022/04/09 06:08:38;;;;;;;13.82;4.32;;;5.00;99.90;;;;;;5118232;28;20028;-60
2022/04/09 06:11:15;;;;;;;19.17;4.82;;;5.10;99.90;;;;;;5102788;28;20027;-63
2022/04/09 06:13:42;;;;;;;15.90;3.92;;;5.20;99.90;;;;;;5101394;28;20073;-62
2022/04/09 06:16:12;;;;;;;17.40;4.18;;;5.30;99.90;;;;;;5117934;28;20046;-62
2022/04/09 06:18:42;;;;;;;16.17;4.70;;;5.40;99.90;;;;;;5118515;28;20032;-63
2022/04/09 06:21:09;;;;;;;16.83;4.70;;;5.50;99.90;;;;;;5117539;28;20023;-62
2022/04/09 06:23:36;;;;;;;16.27;4.28;;;5.50;99.90;;;;;;5117708;28;20095;-62
2022/04/09 06:26:02;;;;;;;20.83;5.15;;;5.40;99.90;;;;;;5118580;28;20030;-62
2022/04/09 06:28:34;;;;;;;17.55;4.07;;;5.50;99.90;;;;;;5117619;28;20031;-60
2022/04/09 06:31:00;;;;;;;12.73;3.28;;;5.80;99.90;;;;;;5117842;28;20023;-62
2022/04/09 06:33:26;;;;;;;14.40;3.72;;;6.00;99.90;;;;;;5100835;28;20058;-60
2022/04/09 06:35:55;;;;;;;17.65;3.85;;;6.10;99.90;;;;;;5117964;28;20042;-63
2022/04/09 06:38:27;;;;;;;19.90;3.63;;;6.30;99.90;;;;;;5117579;28;20292;-60
2022/04/09 06:40:57;;;;;;;13.88;3.13;;;6.30;99.90;;;;;;5117313;28;20051;-62
2022/04/09 06:43:30;;;;;;;14.55;3.45;;;6.30;99.90;;;;;;5101515;28;20097;-60
2022/04/09 06:46:16;;;;;;;15.45;3.70;;;6.40;99.90;;;;;;5073131;28;20085;-59
2022/04/09 06:49:01;;;;;;;14.48;2.83;;;6.60;99.90;;;;;;5117903;28;20073;-60
2022/04/09 06:51:30;;;;;;;12.48;3.17;;;6.70;99.90;;;;;;5117573;28;20330;-59
2022/04/09 06:54:18;;;;;;;10.73;2.83;;;6.80;99.90;;;;;;5103293;28;20047;-60
2022/04/09 06:56:44;;;;;;;13.43;3.25;;;6.90;99.90;;;;;;5100442;28;20034;-61
2022/04/09 06:59:10;;;;;;;13.30;3.47;;;6.90;99.90;;;;;;5117231;28;20398;-58
2022/04/09 07:01:37;;;;;;;15.20;3.05;;;7.00;99.90;;;;;;5117578;28;20350;-60
2022/04/09 07:04:04;;;;;;;11.30;2.35;;;7.20;99.90;;;;;;5100351;28;20391;-60
2022/04/09 07:06:31;;;;;;;14.00;2.78;;;7.40;99.90;;;;;;5118275;28;20314;-59
2022/04/09 07:08:58;;;;;;;13.00;2.60;;;7.30;99.90;;;;;;5117167;28;20031;-59
2022/04/09 07:11:24;;;;;;;14.05;2.72;;;7.40;99.90;;;;;;5117824;28;20024;-59
2022/04/09 07:13:50;;;;;;;10.73;2.97;;;7.60;99.90;;;;;;5116970;28;20051;-61
2022/04/09 07:16:16;;;;;;;13.68;2.88;;;7.80;99.90;;;;;;5099983;28;20038;-59
2022/04/09 07:18:42;;;;;;;12.13;2.83;;;7.90;99.90;;;;;;5116848;28;20023;-62
2022/04/09 07:21:07;;;;;;;15.93;3.50;;;7.90;99.90;;;;;;5117501;28;20284;-58
2022/04/09 07:23:33;;;;;;;14.73;3.03;;;7.90;99.90;;;;;;5116716;28;20106;-58
2022/04/09 07:25:59;;;;;;;13.57;3.15;;;8.00;99.90;;;;;;5118226;28;20032;-58
2022/04/09 07:28:25;;;;;;;13.65;2.65;;;8.00;99.90;;;;;;5116800;28;20032;-60
2022/04/09 07:30:51;;;;;;;14.68;3.33;;;7.90;99.90;;;;;;5099803;28;20024;-58
2022/04/09 07:33:17;;;;;;;13.38;3.10;;;7.90;99.90;;;;;;5117413;28;20429;-58
2022/04/09 07:35:43;;;;;;;10.25;3.13;;;8.00;99.90;;;;;;5116638;28;20088;-57
2022/04/09 07:38:09;;;;;;;11.32;3.30;;;8.10;99.90;;;;;;5117569;28;20039;-59
2022/04/09 07:40:36;;;;;;;14.65;3.15;;;8.20;99.90;;;;;;5099692;28;20052;-59
2022/04/09 07:43:03;;;;;;;20.45;3.20;;;8.40;99.90;;;;;;5083017;28;20139;-57
2022/04/09 07:45:29;;;;;;;8.93;2.72;;;8.30;99.90;;;;;;5099679;28;20133;-60
2022/04/09 07:47:59;;;;;;;12.63;3.15;;;8.20;99.90;;;;;;5116482;28;20387;-58
2022/04/09 07:50:26;;;;;;;8.30;2.50;;;8.00;99.90;;;;;;5116683;28;20042;-61
2022/04/09 07:52:53;;;;;;;10.82;2.95;;;8.00;99.90;;;;;;5116483;28;20028;-58
2022/04/09 07:55:19;;;;;;;13.73;3.03;;;8.10;99.90;;;;;;5116528;28;20166;-59
2022/04/09 07:57:47;;;;;;;11.73;3.17;;;8.20;99.90;;;;;;5099406;28;20411;-57
2022/04/09 08:00:18;;;;;;;15.68;3.22;;;8.40;99.90;;;;;;5116464;28;20061;-63
2022/04/09 08:02:44;;;;;;;12.20;2.80;;;8.40;99.90;;;;;;5116438;28;20114;-57
2022/04/09 08:05:10;;;;;;;9.23;2.63;;;8.40;99.90;;;;;;5117192;28;20028;-60
2022/04/09 08:07:40;;;;;;;12.48;2.58;;;8.60;99.90;;;;;;5116238;28;20356;-59
2022/04/09 08:10:07;;;;;;;12.95;2.95;;;8.60;99.90;;;;;;5116748;28;20030;-58
2022/04/09 08:12:33;;;;;;;12.10;2.80;;;8.80;99.90;;;;;;5116998;28;20177;-62
2022/04/09 08:15:00;;;;;;;9.27;2.75;;;8.80;99.90;;;;;;5117053;28;20050;-57
2022/04/09 08:17:26;;;;;;;10.10;2.50;;;8.90;99.90;;;;;;5116386;28;20077;-56
2022/04/09 08:19:52;;;;;;;14.45;2.53;;;8.90;99.90;;;;;;5117158;28;20023;-59
2022/04/09 08:22:18;;;;;;;7.40;2.30;;;8.90;99.90;;;;;;5117110;28;20383;-59
2022/04/09 08:24:46;;;;;;;9.38;2.38;;;8.90;99.90;;;;;;5116850;28;20027;-58
2022/04/09 08:27:13;;;;;;;7.50;2.20;;;9.10;99.90;;;;;;5116931;28;20042;-59
2022/04/09 08:29:39;;;;;;;7.75;2.30;;;9.00;99.90;;;;;;5116773;28;20038;-59
2022/04/09 08:32:05;;;;;;;8.70;2.10;;;9.00;99.90;;;;;;5116331;28;20024;-60
2022/04/09 08:34:35;;;;;;;4.68;1.75;;;9.00;99.90;;;;;;5099718;28;20039;-57
2022/04/09 08:37:02;;;;;;;8.35;2.10;;;9.00;99.90;;;;;;5116044;28;20035;-57
2022/04/09 08:39:28;;;;;;;9.63;1.92;;;8.90;99.90;;;;;;5116100;28;20059;-59
2022/04/09 08:41:56;;;;;;;9.13;1.63;;;9.10;99.90;;;;;;5116565;28;20067;-58
2022/04/09 08:44:21;;;;;;;5.72;1.70;;;9.20;99.90;;;;;;5116148;28;20019;-59
2022/04/09 08:46:47;;;;;;;7.97;1.73;;;9.30;99.90;;;;;;5120249;28;20028;-58
2022/04/09 08:49:14;;;;;;;7.18;2.28;;;9.40;99.90;;;;;;5102849;28;20024;-59
2022/04/09 08:51:43;;;;;;;6.88;1.92;;;9.50;99.90;;;;;;5120538;28;20042;-58
2022/04/09 08:54:10;;;;;;;11.23;2.10;;;9.50;99.90;;;;;;5120459;28;20032;-57
2022/04/09 08:56:37;;;;;;;5.93;1.70;;;9.60;99.90;;;;;;5120756;28;20020;-57
2022/04/09 08:59:03;;;;;;;9.63;2.80;;;9.60;99.90;;;;;;5119562;28;20032;-57
2022/04/09 09:01:30;;;;;;;8.50;2.30;;;9.70;99.90;;;;;;5120351;28;20032;-57
2022/04/09 09:03:57;;;;;;;7.80;2.03;;;9.90;99.90;;;;;;5119598;28;20028;-58
2022/04/09 09:06:38;;;;;;;9.65;2.05;;;10.10;99.90;;;;;;5119605;28;20066;-58
2022/04/09 09:09:05;;;;;;;4.50;1.30;;;10.20;99.90;;;;;;5119401;28;20028;-58
2022/04/09 09:11:46;;;;;;;4.90;1.45;;;10.10;99.90;;;;;;5120000;28;20035;-57
2022/04/09 09:14:32;;;;;;;3.97;1.60;;;9.90;99.90;;;;;;5120884;28;20034;-59
2022/04/09 09:16:59;;;;;;;9.82;1.85;;;9.80;99.90;;;;;;5102315;28;20038;-58
2022/04/09 09:19:45;;;;;;;8.02;1.70;;;9.90;99.90;;;;;;5120029;28;20039;-58
2022/04/09 09:22:12;;;;;;;3.85;1.27;;;9.90;99.90;;;;;;5120164;28;20032;-57
2022/04/09 09:24:38;;;;;;;4.40;1.40;;;10.00;99.90;;;;;;5119949;28;20065;-57
2022/04/09 09:27:05;;;;;;;7.82;1.63;;;10.10;99.90;;;;;;5119859;28;20024;-57
2022/04/09 09:29:33;;;;;;;4.75;1.60;;;10.30;99.90;;;;;;5118875;28;20032;-58
2022/04/09 09:32:01;;;;;;;5.70;1.23;;;10.60;99.90;;;;;;5119953;28;20042;-57
2022/04/09 09:34:28;;;;;;;3.78;1.20;;;10.60;99.90;;;;;;5119802;28;20024;-59
2022/04/09 09:36:54;;;;;;;4.75;1.05;;;10.40;99.90;;;;;;5118907;28;20065;-55
2022/04/09 09:39:22;;;;;;;3.25;0.93;;;10.40;99.90;;;;;;5119795;28;20051;-57
2022/04/09 09:41:54;;;;;;;4.35;1.10;;;10.50;99.90;;;;;;5119338;28;20497;-57
2022/04/09 09:44:22;;;;;;;4.13;1.25;;;10.70;99.90;;;;;;5119513;28;20042;-57
2022/04/09 09:46:50;;;;;;;4.80;1.42;;;10.60;99.90;;;;;;5119327;28;20030;-58
2022/04/09 09:49:17;;;;;;;3.17;1.20;;;10.50;99.90;;;;;;5101716;28;20028;-56
2022/04/09 09:51:44;;;;;;;5.57;1.20;;;10.70;99.90;;;;;;5118795;28;20102;-56
2022/04/09 09:54:12;;;;;;;3.80;1.27;;;10.90;99.90;;;;;;5118583;28;20041;-57
2022/04/09 09:56:41;;;;;;;5.53;1.25;;;11.30;99.90;;;;;;5119058;28;20077;-57
2022/04/09 09:59:09;;;;;;;3.42;1.10;;;11.30;99.90;;;;;;5119315;28;20027;-59
2022/04/09 10:01:37;;;;;;;3.53;1.10;;;11.20;99.90;;;;;;5119178;28;20091;-60
2022/04/09 10:04:04;;;;;;;4.93;1.30;;;11.40;99.90;;;;;;5118333;28;20019;-58
2022/04/09 10:06:35;;;;;;;3.65;1.30;;;11.60;99.90;;;;;;5119128;28;20276;-57
2022/04/09 10:09:05;;;;;;;1.92;1.00;;;11.90;99.90;;;;;;5119031;28;20106;-58
2022/04/09 10:11:35;;;;;;;2.10;1.10;;;12.00;99.90;;;;;;5118992;28;20452;-58
2022/04/09 10:14:03;;;;;;;2.83;1.23;;;12.10;99.90;;;;;;5119103;28;20303;-57
2022/04/09 10:16:33;;;;;;;2.65;1.30;;;12.00;99.90;;;;;;5119215;28;20367;-57
2022/04/09 10:19:00;;;;;;;4.38;1.75;;;11.80;99.90;;;;;;5119559;28;20038;-57
2022/04/09 10:21:29;;;;;;;4.97;1.45;;;11.70;99.90;;;;;;5118897;28;20019;-57
2022/04/09 10:23:57;;;;;;;6.20;1.50;;;11.60;99.90;;;;;;5118019;28;20395;-59
2022/04/09 10:26:25;;;;;;;4.43;1.20;;;11.30;99.90;;;;;;5118739;28;20035;-58
2022/04/09 10:28:51;;;;;;;5.45;1.48;;;11.40;99.90;;;;;;5118680;28;20032;-57
2022/04/09 10:31:23;;;;;;;5.20;1.23;;;11.20;99.90;;;;;;5117768;28;20031;-58
2022/04/09 10:33:56;;;;;;;6.10;1.50;;;11.00;99.90;;;;;;5118462;28;20111;-56
2022/04/09 10:36:40;;;;;;;;;;;11.00;99.90;;;;;;5118863;28;20032;-57
2022/04/09 10:39:26;;;;;;;3.97;1.40;;;10.90;99.90;;;;;;5117714;28;20294;-58
2022/04/09 10:41:59;;;;;;;5.18;1.20;;;10.70;99.90;;;;;;5118191;28;20120;-56
2022/04/09 10:44:43;;;;;;;3.53;1.15;;;10.70;99.90;;;;;;5119020;28;20031;-57
2022/04/09 10:47:14;;;;;;;3.08;0.93;;;10.50;99.90;;;;;;5118363;28;20140;-56
2022/04/09 10:50:06;;;;;;;6.72;1.27;;;11.20;99.90;;;;;;5117552;28;20035;-57
2022/04/09 10:52:33;;;;;;;5.70;0.90;;;12.50;99.90;;;;;;5118317;28;20028;-56
2022/04/09 10:55:06;;;;;;;2.13;1.05;;;13.50;99.90;;;;;;5118281;28;20055;-58
2022/04/09 10:57:49;;;;;;;2.78;1.10;;;14.10;99.90;;;;;;5117396;28;20028;-56
2022/04/09 11:00:23;;;;;;;3.28;1.00;;;14.70;99.90;;;;;;5118261;28;20031;-59
2022/04/09 11:03:04;;;;;;;3.90;0.93;;;14.80;99.90;;;;;;5117175;28;20046;-56
2022/04/09 11:05:33;;;;;;;6.32;1.73;;;15.00;99.90;;;;;;5118087;28;20027;-56
2022/04/09 11:08:07;;;;;;;3.70;1.10;;;14.90;99.90;;;;;;5117350;28;20115;-56
2022/04/09 11:10:33;;;;;;;2.85;1.15;;;14.40;99.70;;;;;;5117193;28;20031;-56
2022/04/09 11:12:59;;;;;;;2.33;0.98;;;13.60;99.90;;;;;;5117213;28;20046;-58
2022/04/09 11:15:27;;;;;;;3.55;1.10;;;12.70;99.90;;;;;;5100196;28;20417;-57
2022/04/09 11:18:00;;;;;;;2.67;0.90;;;12.60;99.90;;;;;;5117769;28;20051;-57
2022/04/09 11:20:30;;;;;;;3.28;1.10;;;12.40;99.90;;;;;;5118427;28;20032;-61
2022/04/09 11:22:56;;;;;;;3.28;1.10;;;12.30;99.90;;;;;;5116825;28;20031;-56
2022/04/09 11:25:25;;;;;;;3.47;1.20;;;11.90;99.90;;;;;;5116991;28;20024;-60
2022/04/09 11:28:13;;;;;;;3.30;1.00;;;12.70;99.90;;;;;;5116810;28;20098;-57
2022/04/09 11:31:00;;;;;;;2.45;1.10;;;14.20;99.90;;;;;;5117580;28;20354;-56
2022/04/09 11:33:27;;;;;;;1.70;0.60;;;15.40;97.10;;;;;;5117160;28;20028;-57
2022/04/09 11:35:53;;;;;;;5.07;0.90;;;16.10;94.40;;;;;;5117540;28;20047;-58
2022/04/09 11:38:22;;;;;;;3.72;1.08;;;16.40;91.70;;;;;;5117563;28;20035;-56
2022/04/09 11:40:48;;;;;;;3.47;1.00;;;16.60;91.70;;;;;;5117334;28;20027;-56
2022/04/09 11:43:15;;;;;;;4.40;1.10;;;16.80;91.60;;;;;;5117453;28;20410;-56
2022/04/09 11:45:42;;;;;;;3.67;0.80;;;16.50;91.00;;;;;;5100012;28;20059;-57
2022/04/09 11:48:15;;;;;;;4.00;1.17;;;16.00;91.60;;;;;;5117298;28;20038;-56
2022/04/09 11:50:41;;;;;;;3.60;1.00;;;16.00;91.40;;;;;;5117298;28;20023;-57
2022/04/09 11:53:10;;;;;;;4.47;0.70;;;16.70;90.70;;;;;;5117313;28;20081;-57
2022/04/09 11:55:37;;;;;;;2.53;0.60;;;17.30;89.60;;;;;;5116621;28;20023;-56
2022/04/09 11:58:03;;;;;;;4.35;1.15;;;17.70;85.30;;;;;;5099709;28;20403;-58
2022/04/09 12:00:30;;;;;;;2.88;0.90;;;18.10;86.10;;;;;;5117182;28;20031;-58
2022/04/09 12:03:04;;;;;;;3.22;1.00;;;18.40;85.40;;;;;;5099341;28;20307;-58
2022/04/09 12:05:41;;;;;;;2.83;1.00;;;18.60;82.90;;;;;;5117073;28;20436;-58
2022/04/09 12:08:12;;;;;;;2.47;1.00;;;17.60;83.20;;;;;;5116134;28;20039;-56
2022/04/09 12:11:02;;;;;;;2.92;1.10;;;16.50;86.70;;;;;;5117178;28;20019;-56
2022/04/09 12:13:35;;;;;;;4.32;1.35;;;15.40;88.70;;;;;;5117452;28;20096;-57
2022/04/09 12:16:14;;;;;;;3.97;1.27;;;15.20;90.80;;;;;;5117204;28;20027;-58
2022/04/09 12:18:41;;;;;;;3.15;1.27;;;14.90;90.70;;;;;;5116892;28;20085;-57
2022/04/09 12:21:25;;;;;;;3.20;1.23;;;14.40;91.90;;;;;;5120955;28;20360;-57
2022/04/09 12:24:05;;;;;;;5.00;1.35;;;14.10;93.30;;;;;;5120211;28;20050;-56
2022/04/09 12:26:33;;;;;;;2.50;1.17;;;14.10;94.70;;;;;;5121187;28;20031;-55
2022/04/09 12:29:26;;;;;;;3.95;1.08;;;14.40;94.20;;;;;;5121241;27;20370;-56
2022/04/09 12:32:12;;;;;;;3.03;0.82;;;15.00;91.80;;;;;;5121180;28;20127;-57
2022/04/09 12:34:59;;;;;;;3.33;1.20;;;15.60;88.20;;;;;;5120734;28;20035;-58
2022/04/09 12:37:26;;;;;;;1.65;1.02;;;15.90;90.00;;;;;;5120326;28;20069;-59
2022/04/09 12:40:09;;;;;;;2.75;0.80;;;16.00;90.70;;;;;;5120717;28;20080;-57
2022/04/09 12:42:35;;;;;;;2.38;0.88;;;15.40;86.60;;;;;;5120564;28;20052;-59
2022/04/09 12:45:15;;;;;;;3.28;1.08;;;16.10;83.60;;;;;;5120680;28;20363;-57
2022/04/09 12:47:42;;;;;;;2.17;1.08;;;17.40;78.70;;;;;;5120711;28;20034;-56
2022/04/09 12:50:26;;;;;;;2.17;0.80;;;17.40;79.30;;;;;;5120639;28;20032;-55
2022/04/09 12:52:53;;;;;;;2.75;0.90;;;16.00;78.00;;;;;;5119902;28;20032;-57
2022/04/09 12:55:20;;;;;;;4.30;1.08;;;15.40;80.00;;;;;;5120533;28;20055;-57
2022/04/09 12:57:45;;;;;;;3.90;1.23;;;16.10;80.70;;;;;;5119790;28;20348;-58